• Join FlightAware (Why Join?)
  • Login
  • US Flag 
11:48AM EST


 

Airport Tracker/Info


-or-


 

Live Flight TrackerFlight Track Log ✈ AAL963 ✈ 24-Sep-2013 ✈ KDFW - SBGR / GRU

Flight Track Log - Related Links

Times and Time Zones

All times are in EDT time to prevent confusion due to time zone crossing. See the AAL963 flight status page for this flight to view local times or setup timezone preferences in your user account.

Time Position Orientation Groundspeed Altitude Reporting Facility
EDT Latitude Longitude Course Direction KTS MPH feet Rate Location/Type
09:13PM 32.9280 -97.0520 352° North 192 221 1,800  Level FlightAware
09:13PM 32.9460 -97.0570 347° North 203 234 2,300 900 Climbing FlightAware
09:14PM 32.9710 -97.0650 345° North 237 273 2,500 780 Climbing FlightAware
09:14PM 32.9840 -97.0690 346° North 244 281 2,800 1,860 Climbing FlightAware
09:14PM 33.0030 -97.0770 341° North 242 278 3,500 2,100 Climbing FlightAware
09:15PM 33.0120 -97.0840 327° Northwest 244 281 3,800 1,860 Climbing FlightAware
09:15PM 33.0180 -97.0920 312° West 250 288 4,000 1,500 Climbing FlightAware
09:15PM 33.0240 -97.1020 306° West 256 295 4,200 1,500 Climbing FlightAware
09:15PM 33.0250 -97.1070 283° West 258 297 4,300 1,980 Climbing FlightAware
09:15PM 33.0270 -97.1190 281° West 263 303 4,600 2,160 Climbing FlightAware
09:15PM 33.0240 -97.1620 265° West 272 313 5,700 2,340 Climbing FlightAware
09:16PM 33.0210 -97.1750 255° West 274 315 6,100 2,400 Climbing FlightAware
09:16PM 33.0150 -97.1910 246° West 282 325 6,500 2,100 Climbing FlightAware
09:16PM 33.0090 -97.2010 234° Southwest 287 330 6,800 2,520 Climbing FlightAware
09:16PM 32.9910 -97.2270 230° Southwest 286 329 7,700 2,520 Climbing FlightAware
09:17PM 32.9760 -97.2490 231° Southwest 285 328 8,400 1,920 Climbing FlightAware
09:17PM 32.9560 -97.2720 224° Southwest 296 341 9,000 1,800 Climbing FlightAware
09:17PM 32.9470 -97.2780 209° Southwest 298 343 9,300 1,500 Climbing FlightAware
09:17PM 32.9380 -97.2810 196° South 301 346 9,400 840 Climbing FlightAware
09:17PM 32.9270 -97.2820 184° South 307 353 9,500 1,500 Climbing FlightAware
09:18PM 32.8950 -97.2790 175° South 317 365 10,100 1,560 Climbing FlightAware
09:18PM 32.8660 -97.2670 161° South 325 374 10,600 1,020 Climbing FlightAware
09:18PM 32.8380 -97.2490 152° Southeast 345 397 10,800 600 Climbing FlightAware
09:19PM 32.7880 -97.2090 146° Southeast 383 441 11,200 1,080 Climbing FlightAware
09:20PM 32.7330 -97.1650 146° Southeast 405 466 12,100 1,560 Climbing FlightAware
09:20PM 32.6810 -97.1250 147° Southeast 417 480 13,000 1,860 Climbing FlightAware
09:21PM 32.6290 -97.0840 146° Southeast 424 488 14,100 2,040 Climbing FlightAware
09:21PM 32.5710 -97.0380 146° Southeast 430 495 15,300 1,860 Climbing FlightAware
09:22PM 32.5120 -96.9930 147° Southeast 436 502 16,300 1,620 Climbing FlightAware
09:22PM 32.4560 -96.9490 146° Southeast 443 510 17,200 1,680 Climbing FlightAware
09:23PM 32.4000 -96.9050 146° Southeast 449 517 18,200 1,560 Climbing FlightAware
09:24PM 32.3300 -96.8510 147° Southeast 458 527 19,100 1,380 Climbing FlightAware
09:24PM 32.2946 -96.8259 149° Southeast 464 534 19,600 1,620 Climbing FlightAware ADS-B
09:24PM 32.2307 -96.7947 158° South 468 539 20,500 1,560 Climbing FlightAware ADS-B
09:25PM 32.1630 -96.7686 162° South 472 543 21,300 1,440 Climbing FlightAware ADS-B
09:26PM 32.0783 -96.7370 162° South 478 550 22,300 1,500 Climbing FlightAware ADS-B
09:26PM 32.0113 -96.7117 162° South 484 557 23,100 1,380 Climbing FlightAware ADS-B
09:27PM 31.9437 -96.6861 162° South 491 565 23,800 1,320 Climbing FlightAware ADS-B
09:27PM 31.8768 -96.6606 162° South 497 572 24,500 1,320 Climbing FlightAware ADS-B
09:28PM 31.8097 -96.6336 161° South 503 579 25,200 1,320 Climbing FlightAware ADS-B
09:28PM 31.7417 -96.6052 160° South 509 586 25,900 1,320 Climbing FlightAware ADS-B
09:29PM 31.6734 -96.5769 161° South 513 590 26,600 1,200 Climbing FlightAware ADS-B
09:29PM 31.6013 -96.5473 161° South 519 597 27,200 1,080 Climbing FlightAware ADS-B
09:30PM 31.5278 -96.5174 161° South 525 604 27,800 1,140 Climbing FlightAware ADS-B
09:30PM 31.4563 -96.4896 162° South 530 610 28,400 1,140 Climbing FlightAware ADS-B
09:31PM 31.3841 -96.4630 163° South 535 616 29,000 1,140 Climbing FlightAware ADS-B
09:31PM 31.3127 -96.4368 163° South 539 620 29,600 1,500 Climbing FlightAware ADS-B
09:32PM 31.2419 -96.4106 162° South 533 613 30,500 1,740 Climbing FlightAware ADS-B
09:32PM 31.2169 -96.3999 160° South 529 609 30,800 1,080 Climbing FlightAware ADS-B
09:32PM 31.1808 -96.3775 152° Southeast 530 610 31,000 480 Climbing FlightAware ADS-B
09:32PM 31.1625 -96.3622 144° Southeast 532 612 31,000  Level FlightAware ADS-B
09:33PM 31.1453 -96.3443 138° Southeast 533 613 31,000  Level FlightAware ADS-B
09:33PM 31.1305 -96.3258 133° Southeast 533 613 31,000  Level FlightAware ADS-B
09:33PM 31.0859 -96.2549 126° Southeast 539 620 31,000  Level FlightAware ADS-B
09:34PM 31.0413 -96.1820 126° Southeast 538 619 31,000  Level FlightAware ADS-B
09:34PM 30.9969 -96.1093 125° Southeast 537 618 31,000  Level FlightAware ADS-B
09:35PM 30.9536 -96.0383 125° Southeast 537 618 31,000  Level FlightAware ADS-B
09:35PM 30.9102 -95.9677 126° Southeast 538 619 31,000  Level FlightAware ADS-B
09:36PM 30.8643 -95.8936 126° Southeast 539 620 31,000  Level FlightAware ADS-B
09:36PM 30.8205 -95.8231 126° Southeast 540 621 31,000  Level FlightAware ADS-B
09:37PM 30.7758 -95.7512 126° Southeast 540 621 31,000  Level FlightAware ADS-B
09:37PM 30.7313 -95.6797 126° Southeast 539 620 31,000  Level FlightAware ADS-B
09:38PM 30.6831 -95.6026 126° Southeast 539 620 31,000  Level FlightAware ADS-B
09:38PM 30.6384 -95.5312 126° Southeast 539 620 31,000  Level FlightAware ADS-B
09:39PM 30.5836 -95.4437 126° Southeast 539 620 31,000  Level FlightAware ADS-B
09:39PM 30.5385 -95.3717 126° Southeast 540 621 31,000  Level FlightAware ADS-B
09:40PM 30.4939 -95.3010 126° Southeast 539 620 31,000  Level FlightAware ADS-B
09:40PM 30.4494 -95.2301 126° Southeast 538 619 31,000  Level FlightAware ADS-B
09:41PM 30.4049 -95.1596 126° Southeast 538 619 31,000  Level FlightAware ADS-B
09:42PM 30.3597 -95.0881 126° Southeast 537 618 31,000  Level FlightAware ADS-B
09:43PM 30.2708 -94.9477 126° Southeast 536 617 31,000  Level FlightAware ADS-B
09:43PM 30.2302 -94.8839 126° Southeast 536 617 31,000  Level FlightAware ADS-B
09:43PM 30.2263 -94.8776 126° Southeast 536 617 31,000  Level FlightAware ADS-B
09:43PM 30.1822 -94.8085 126° Southeast 536 617 31,000  Level FlightAware ADS-B
09:44PM 30.1815 -94.8074 126° Southeast 536 617 31,000  Level FlightAware ADS-B
09:44PM 30.1392 -94.7409 126° Southeast 534 615 31,000  Level FlightAware ADS-B
09:44PM 30.1369 -94.7375 127° Southeast 534 615 31,000  Level FlightAware ADS-B
09:45PM 30.0928 -94.6684 126° Southeast 534 615 31,000  Level FlightAware ADS-B
09:45PM 30.0517 -94.6040 126° Southeast 534 615 31,000  Level FlightAware ADS-B
09:45PM 30.0489 -94.5996 126° Southeast 534 615 31,000  Level FlightAware ADS-B
09:46PM 30.0044 -94.5304 127° Southeast 533 613 31,000  Level FlightAware ADS-B
09:46PM 29.9644 -94.4679 126° Southeast 534 615 31,000  Level FlightAware ADS-B
09:46PM 29.9600 -94.4611 127° Southeast 534 615 31,000  Level FlightAware ADS-B
09:46PM 29.9364 -94.4246 127° Southeast 536 617 31,000  Level FlightAware ADS-B
09:46PM 29.9262 -94.4108 130° Southeast 540 621 31,000  Level FlightAware ADS-B
09:47PM 29.9170 -94.4006 136° Southeast 536 617 31,000  Level FlightAware ADS-B
09:47PM 29.8601 -94.3466 141° Southeast 532 612 31,000  Level FlightAware ADS-B
09:47PM 29.8415 -94.3295 141° Southeast 532 612 31,000  Level FlightAware ADS-B
09:48PM 29.8010 -94.2918 141° Southeast 531 611 31,000  Level FlightAware ADS-B
09:48PM 29.7767 -94.2687 140° Southeast 531 611 31,000  Level FlightAware ADS-B
09:48PM 29.7440 -94.2371 140° Southeast 531 611 31,000  Level FlightAware ADS-B
09:48PM 29.7072 -94.2009 139° Southeast 530 610 31,000  Level FlightAware ADS-B
09:49PM 29.6881 -94.1819 139° Southeast 530 610 31,000  Level FlightAware ADS-B
09:49PM 29.6510 -94.1450 139° Southeast 531 611 31,000  Level FlightAware ADS-B
09:49PM 29.6324 -94.1263 139° Southeast 531 611 31,000  Level FlightAware ADS-B
09:49PM 29.5814 -94.0772 140° Southeast 531 611 31,000  Level FlightAware ADS-B
09:50PM 29.5229 -94.0246 142° Southeast 530 610 31,000  Level FlightAware ADS-B
09:50PM 29.4631 -93.9709 142° Southeast 529 609 31,000  Level FlightAware ADS-B
09:51PM 29.4285 -93.9396 142° Southeast 527 606 31,000  Level FlightAware ADS-B
09:51PM 29.4027 -93.9162 142° Southeast 527 606 31,000  Level FlightAware ADS-B
09:52PM 29.3452 -93.8640 142° Southeast 527 606 31,000  Level FlightAware ADS-B
09:52PM 29.3048 -93.8273 142° Southeast 525 604 31,000  Level FlightAware ADS-B
09:52PM 29.2875 -93.8115 142° Southeast 524 603 31,000  Level FlightAware ADS-B
09:53PM 29.2194 -93.7496 142° Southeast 522 601 31,000  Level FlightAware ADS-B
09:53PM 29.1593 -93.6951 142° Southeast 521 600 31,000  Level FlightAware ADS-B
09:54PM 29.0890 -93.6316 142° Southeast 522 601 31,000  Level FlightAware ADS-B
09:54PM 29.0900 -93.6250 80° East 528 608 31,000  Level FlightAware
09:54PM 29.0075 -93.5582 145° Southeast 522 601 31,000  Level FlightAware ADS-B
09:55PM 28.9389 -93.4966 142° Southeast 523 602 31,000  Level FlightAware ADS-B
09:56PM 28.9140 -93.4620 129° Southeast 528 608 31,000  Level FlightAware
09:57PM 28.8560 -93.4080 141° Southeast 528 608 31,000  Level FlightAware
09:57PM 28.7980 -93.3540 141° Southeast 528 608 31,000  Level FlightAware
09:58PM 28.7380 -93.2990 141° Southeast 528 608 31,000  Level FlightAware
09:59PM 28.6800 -93.2460 141° Southeast 528 608 31,000  Level FlightAware
09:59PM 28.6220 -93.1920 141° Southeast 528 608 31,000  Level FlightAware
10:00PM 28.5620 -93.1370 141° Southeast 528 608 31,000  Level FlightAware
10:00PM 28.5040 -93.0830 141° Southeast 528 608 31,000  Level FlightAware
10:01PM 28.2753 -92.9050 141° Southeast 518 596 31,000  Level Houston Center
10:02PM 28.1642 -92.8058 142° Southeast 513 590 31,000 -60 Level Houston Center
10:03PM 28.0506 -92.7067 142° Southeast 514 592 30,900 -60 Descending Houston Center
10:04PM 27.9383 -92.6078 142° Southeast 513 590 30,900  Level Houston Center
10:05PM 27.8031 -92.4908 143° Southeast 511 588 31,000  Climbing Houston Center
10:06PM 27.6889 -92.3944 143° Southeast 512 589 31,000  Level Houston Center
10:07PM 27.5764 -92.2956 142° Southeast 513 590 31,000  Level Houston Center
10:08PM 27.4639 -92.2000 143° Southeast 509 586 31,000  Level Houston Center
10:09PM 27.3506 -92.1019 142° Southeast 511 588 31,000 -60 Level Houston Center
10:10PM 27.2375 -92.0053 143° Southeast 511 588 30,900  Descending Houston Center
10:11PM 27.1253 -91.9058 142° Southeast 513 590 31,000 60 Climbing Houston Center
10:13PM 26.9914 -91.7976 144° Southeast  Level FlightAware Approximate
10:20PM 26.2299 -91.1887 145° Southeast  Level FlightAware Approximate
10:21PM 26.1206 -91.1028 145° Southeast  Level FlightAware Approximate
10:22PM 26.0112 -91.0171 145° Southeast  Level FlightAware Approximate
10:23PM 25.9019 -90.9315 145° Southeast  Level FlightAware Approximate
10:24PM 25.7924 -90.8461 145° Southeast  Level FlightAware Approximate
10:25PM 25.6830 -90.7608 145° Southeast  Level FlightAware Approximate
10:26PM 25.5734 -90.6757 145° Southeast  Level FlightAware Approximate
10:27PM 25.4639 -90.5908 145° Southeast  Level FlightAware Approximate
10:28PM 25.3542 -90.5060 145° Southeast  Level FlightAware Approximate
10:29PM 25.2445 -90.4213 145° Southeast  Level FlightAware Approximate
10:30PM 25.1348 -90.3369 145° Southeast  Level FlightAware Approximate
10:31PM 25.0250 -90.2525 145° Southeast  Level FlightAware Approximate
10:32PM 24.9153 -90.1681 145° Southeast  Level FlightAware Approximate
10:33PM 24.8056 -90.0838 145° Southeast  Level FlightAware Approximate
10:34PM 24.6959 -89.9997 145° Southeast  Level FlightAware Approximate
10:35PM 24.5861 -89.9157 145° Southeast  Level FlightAware Approximate
10:36PM 24.4786 -89.8285 137° Southeast  Level FlightAware Approximate
10:37PM 24.3812 -89.7279 137° Southeast  Level FlightAware Approximate
10:38PM 24.2838 -89.6274 137° Southeast  Level FlightAware Approximate
10:39PM 24.1862 -89.5270 137° Southeast  Level FlightAware Approximate
10:40PM 24.0886 -89.4269 137° Southeast  Level FlightAware Approximate
10:41PM 23.9909 -89.3269 137° Southeast  Level FlightAware Approximate
10:42PM 23.8932 -89.2270 137° Southeast  Level FlightAware Approximate
10:43PM 23.7954 -89.1273 137° Southeast  Level FlightAware Approximate
10:44PM 23.6975 -89.0277 137° Southeast  Level FlightAware Approximate
10:44PM 23.4130 -89.0340 137° Southeast 501 577 33,000  Level FlightAware
10:44PM 23.3330 -88.9740 145° Southeast 501 577 33,000  Level FlightAware
10:45PM 23.2760 -88.9300 145° Southeast 501 577 33,000  Level FlightAware
10:45PM 23.2080 -88.8800 146° Southeast 503 579 33,000  Level FlightAware
10:46PM 23.1330 -88.8250 146° Southeast 503 579 33,000  Level FlightAware
10:47PM 23.0620 -88.7720 146° Southeast 504 580 33,000  Level FlightAware
10:47PM 22.9840 -88.7140 146° Southeast 505 581 33,000  Level FlightAware
10:48PM 22.9240 -88.6700 146° Southeast 502 578 33,000  Level FlightAware
10:48PM 22.8640 -88.6260 146° Southeast 502 578 33,000  Level FlightAware
10:49PM 22.8030 -88.5810 146° Southeast 502 578 33,000  Level FlightAware
10:50PM 22.7220 -88.5210 146° Southeast 503 579 33,000  Level FlightAware
10:50PM 22.6530 -88.4700 146° Southeast 502 578 33,000  Level FlightAware
10:51PM 22.5920 -88.4220 144° Southeast 502 578 33,000  Level FlightAware
10:51PM 22.5390 -88.3700 138° Southeast 502 578 33,000  Level FlightAware
10:52PM 22.4770 -88.3070 137° Southeast 502 578 33,000  Level FlightAware
10:53PM 22.4140 -88.2430 137° Southeast 503 579 33,000  Level FlightAware
10:53PM 22.3580 -88.1860 137° Southeast 503 579 33,000  Level FlightAware
10:54PM 22.3020 -88.1290 137° Southeast 504 580 33,000  Level FlightAware
10:54PM 22.2310 -88.0570 137° Southeast 502 578 33,000  Level FlightAware
10:55PM 22.1670 -87.9930 137° Southeast 501 577 33,000  Level FlightAware
10:56PM 22.1000 -87.9240 136° Southeast 499 574 33,000  Level FlightAware
10:56PM 22.0430 -87.8680 138° Southeast 498 573 33,000  Level FlightAware
10:57PM 21.9780 -87.8020 137° Southeast 499 574 33,000  Level FlightAware
10:57PM 21.9170 -87.7400 137° Southeast 497 572 33,000  Level FlightAware
10:58PM 21.8550 -87.6790 138° Southeast 497 572 33,000  Level FlightAware
10:59PM 21.7930 -87.6170 137° Southeast 496 571 33,000  Level FlightAware
10:59PM 21.7270 -87.5510 137° Southeast 496 571 33,000  Level FlightAware
11:00PM 21.6660 -87.4910 138° Southeast 493 567 33,000  Level FlightAware
11:01PM 21.6040 -87.4290 137° Southeast 492 566 33,000  Level FlightAware
11:01PM 21.5500 -87.3760 138° Southeast 491 565 33,000  Level FlightAware
11:02PM 21.4800 -87.3070 137° Southeast 491 565 33,000  Level FlightAware
11:02PM 21.4270 -87.2540 137° Southeast 492 566 33,000  Level FlightAware
11:03PM 21.3630 -87.1910 137° Southeast 493 567 33,000  Level FlightAware
11:03PM 21.3080 -87.1370 138° Southeast 493 567 33,000  Level FlightAware
11:04PM 21.2550 -87.0850 138° Southeast 492 566 33,000  Level FlightAware
11:05PM 21.1870 -87.0180 137° Southeast 489 563 33,000  Level FlightAware
11:05PM 21.1200 -86.9520 137° Southeast 488 562 33,000  Level FlightAware
11:06PM 21.0640 -86.8970 137° Southeast 489 563 33,000  Level FlightAware
11:07PM 21.0030 -86.8370 137° Southeast 489 563 33,000  Level FlightAware
11:07PM 20.9420 -86.7780 138° Southeast 488 562 33,000  Level FlightAware
11:08PM 20.8810 -86.7190 138° Southeast 489 563 33,000  Level FlightAware
11:08PM 20.8190 -86.6580 137° Southeast 488 562 33,000  Level FlightAware
11:09PM 20.7590 -86.6000 138° Southeast 489 563 33,000  Level FlightAware
11:10PM 20.6880 -86.5320 138° Southeast 490 564 33,000  Level FlightAware
11:10PM 20.5990 -86.4460 138° Southeast 489 563 33,000  Level FlightAware
11:11PM 20.5460 -86.3950 138° Southeast 490 564 33,000  Level FlightAware
11:11PM 20.4920 -86.3430 138° Southeast 487 560 33,000  Level FlightAware
11:12PM 20.4440 -86.2970 138° Southeast 487 560 33,000  Level FlightAware
11:13PM 20.3750 -86.2280 137° Southeast 486 559 33,000  Level FlightAware
11:14PM 20.2960 -86.1520 138° Southeast 485 558 33,000  Level FlightAware
11:14PM 20.2330 -86.0930 139° Southeast 487 560 33,000  Level FlightAware
11:15PM 20.1540 -86.0170 138° Southeast 487 560 33,000  Level FlightAware
11:15PM 20.0930 -85.9600 139° Southeast 487 560 33,000  Level FlightAware
11:16PM 20.0390 -85.9070 137° Southeast 488 562 33,000  Level FlightAware
11:17PM 19.9750 -85.8470 139° Southeast 488 562 33,000  Level FlightAware
11:17PM 19.9220 -85.7970 138° Southeast 487 560 33,000  Level FlightAware
11:18PM 19.8610 -85.7390 138° Southeast 488 562 33,000  Level FlightAware
11:18PM 19.7990 -85.6810 139° Southeast 487 560 33,000  Level FlightAware
11:19PM 19.7420 -85.6280 139° Southeast 487 560 33,000  Level FlightAware
11:19PM 19.6940 -85.5820 138° Southeast 487 560 33,000  Level FlightAware
11:20PM 19.6380 -85.5290 138° Southeast 487 560 33,000  Level FlightAware
11:21PM 19.5600 -85.4550 138° Southeast 485 558 33,000  Level FlightAware
11:21PM 19.4960 -85.3960 139° Southeast 486 559 33,000  Level FlightAware
11:22PM 19.4380 -85.3430 139° Southeast 486 559 33,000  Level FlightAware
11:23PM 19.3730 -85.2820 138° Southeast 487 560 33,000  Level FlightAware
11:23PM 19.3160 -85.2270 138° Southeast 487 560 33,000  Level FlightAware
11:24PM 19.2640 -85.1780 138° Southeast 487 560 33,000  Level FlightAware
11:24PM 19.2130 -85.1290 138° Southeast 487 560 33,000  Level FlightAware
11:25PM 19.1620 -85.0800 138° Southeast 487 560 33,000  Level FlightAware
11:26PM 19.1110 -85.0310 138° Southeast 487 560 33,000  Level FlightAware
11:26PM 19.0590 -84.9830 139° Southeast 487 560 33,000  Level FlightAware
11:27PM 19.0080 -84.9340 138° Southeast 487 560 33,000  Level FlightAware
11:27PM 18.9570 -84.8850 138° Southeast 487 560 33,000  Level FlightAware
11:28PM 18.9060 -84.8360 138° Southeast 487 560 33,000  Level FlightAware
11:29PM 18.8540 -84.7880 139° Southeast 487 560 33,000  Level FlightAware
11:29PM 18.8030 -84.7390 138° Southeast 487 560 33,000  Level FlightAware
11:30PM 18.7520 -84.6900 138° Southeast 487 560 33,000  Level FlightAware
11:30PM 18.7010 -84.6410 138° Southeast 487 560 33,000  Level FlightAware
11:31PM 18.6480 -84.5910 138° Southeast 487 560 33,000  Level FlightAware
11:32PM 18.5970 -84.5430 138° Southeast 487 560 33,000  Level FlightAware
11:32PM 18.5460 -84.4940 138° Southeast 487 560 33,000  Level FlightAware
11:35PM 18.3316 -84.2838 137° Southeast  Level Estimated
11:36PM 18.2355 -84.1898 137° Southeast  Level Estimated
11:37PM 18.1394 -84.0960 137° Southeast  Level Estimated
11:38PM 18.0432 -84.0022 137° Southeast  Level Estimated
11:39PM 17.9470 -83.9086 137° Southeast  Level Estimated
11:40PM 17.8508 -83.8150 137° Southeast  Level Estimated
11:41PM 17.7545 -83.7216 137° Southeast  Level Estimated
11:42PM 17.6581 -83.6282 137° Southeast  Level Estimated
11:43PM 17.5618 -83.5350 137° Southeast  Level Estimated
11:44PM 17.4653 -83.4418 137° Southeast  Level Estimated
11:45PM 17.3689 -83.3488 137° Southeast  Level Estimated
11:46PM 17.2723 -83.2558 137° Southeast  Level Estimated
11:47PM 17.1758 -83.1630 137° Southeast  Level Estimated
11:48PM 17.0792 -83.0702 137° Southeast  Level Estimated
11:49PM 16.9825 -82.9775 137° Southeast  Level Estimated
11:50PM 16.8859 -82.8850 138° Southeast  Level Estimated
11:51PM 16.7891 -82.7925 138° Southeast  Level Estimated
11:52PM 16.6924 -82.7001 138° Southeast  Level Estimated
11:53PM 16.5955 -82.6078 138° Southeast  Level Estimated
11:54PM 16.4987 -82.5156 138° Southeast  Level Estimated
11:55PM 16.4018 -82.4236 138° Southeast  Level Estimated
11:56PM 16.3049 -82.3315 138° Southeast  Level Estimated
11:57PM 16.2079 -82.2396 138° Southeast  Level Estimated
11:58PM 16.1109 -82.1478 138° Southeast  Level Estimated
11:59PM 16.0138 -82.0561 138° Southeast  Level Estimated
12:00AM 15.9167 -81.9644 138° Southeast  Level Estimated
12:01AM 15.8196 -81.8728 138° Southeast  Level Estimated
12:02AM 15.7225 -81.7814 138° Southeast  Level Estimated
12:03AM 15.6252 -81.6900 138° Southeast  Level Estimated
12:04AM 15.5280 -81.5987 138° Southeast  Level Estimated
12:05AM 15.4307 -81.5075 138° Southeast  Level Estimated
12:06AM 15.3334 -81.4164 138° Southeast  Level Estimated
12:07AM 15.2361 -81.3253 138° Southeast  Level Estimated
12:08AM 15.1387 -81.2344 138° Southeast  Level Estimated
12:09AM 15.0412 -81.1435 138° Southeast  Level Estimated
12:10AM 14.9438 -81.0527 138° Southeast  Level Estimated
12:11AM 14.8463 -80.9620 138° Southeast  Level Estimated
12:12AM 14.7487 -80.8714 138° Southeast  Level Estimated
12:13AM 14.6512 -80.7808 138° Southeast  Level Estimated
12:14AM 14.5536 -80.6904 138° Southeast  Level Estimated
12:15AM 14.4559 -80.6000 138° Southeast  Level Estimated
12:16AM 14.3583 -80.5097 138° Southeast  Level Estimated
12:17AM 14.2606 -80.4195 138° Southeast  Level Estimated
12:18AM 14.1628 -80.3293 138° Southeast  Level Estimated
12:19AM 14.0651 -80.2393 138° Southeast  Level Estimated
12:20AM 13.9672 -80.1493 138° Southeast  Level Estimated
12:21AM 13.8694 -80.0593 138° Southeast  Level Estimated
12:22AM 13.7715 -79.9695 138° Southeast  Level Estimated
12:23AM 13.6736 -79.8797 138° Southeast  Level Estimated
12:24AM 13.5757 -79.7900 138° Southeast  Level Estimated
12:25AM 13.4775 -79.7003 138° Southeast  Level Estimated
12:26AM 13.3794 -79.6106 138° Southeast  Level Estimated
12:27AM 13.2812 -79.5210 138° Southeast  Level Estimated
12:28AM 13.1829 -79.4314 138° Southeast  Level Estimated
12:29AM 13.0847 -79.3419 138° Southeast  Level Estimated
12:30AM 12.9864 -79.2525 138° Southeast  Level Estimated
12:31AM 12.8880 -79.1632 138° Southeast  Level Estimated
12:32AM 12.7897 -79.0739 138° Southeast  Level Estimated
12:33AM 12.6913 -78.9847 139° Southeast  Level Estimated
12:34AM 12.5928 -78.8956 139° Southeast  Level Estimated
12:35AM 12.4944 -78.8065 139° Southeast  Level Estimated
12:36AM 12.3959 -78.7175 139° Southeast  Level Estimated
12:37AM 12.2974 -78.6286 139° Southeast  Level Estimated
12:38AM 12.1989 -78.5397 139° Southeast  Level Estimated
12:39AM 12.1003 -78.4509 139° Southeast  Level Estimated
12:40AM 12.0017 -78.3622 139° Southeast  Level Estimated
12:41AM 11.9031 -78.2735 139° Southeast  Level Estimated
12:42AM 11.8045 -78.1849 139° Southeast  Level Estimated
12:43AM 11.7058 -78.0964 139° Southeast  Level Estimated
12:44AM 11.6071 -78.0079 139° Southeast  Level Estimated
12:45AM 11.5083 -77.9195 139° Southeast  Level Estimated
12:46AM 11.4096 -77.8311 139° Southeast  Level Estimated
12:47AM 11.3108 -77.7429 139° Southeast  Level Estimated
12:48AM 11.2120 -77.6546 139° Southeast  Level Estimated
12:49AM 11.1131 -77.5665 139° Southeast  Level Estimated
12:49AM 10.7190 -77.1930 139° Southeast 481 554 35,000  Level FlightAware
12:50AM 11.0143 -77.4783 139° Southeast  Level Estimated
12:50AM 10.6620 -77.1400 138° Southeast 479 551 35,000  Level FlightAware
12:50AM 10.6090 -77.0900 137° Southeast 479 551 35,000  Level FlightAware
12:51AM 10.5580 -77.0410 137° Southeast 479 551 35,000  Level FlightAware
12:52AM 10.4750 -76.9660 138° Southeast 481 554 35,000  Level FlightAware
12:52AM 10.4070 -76.9020 137° Southeast 479 551 35,000  Level FlightAware
12:53AM 10.3490 -76.8490 138° Southeast 477 549 35,000  Level FlightAware
12:54AM 10.2940 -76.7980 138° Southeast 479 551 35,000  Level FlightAware
12:54AM 10.2460 -76.7530 137° Southeast 479 551 35,000  Level FlightAware
12:55AM 10.1800 -76.6920 138° Southeast 483 556 35,000  Level FlightAware
12:55AM 10.1260 -76.6410 137° Southeast 484 557 35,000  Level FlightAware
12:56AM 10.0690 -76.5890 138° Southeast 488 562 35,000  Level FlightAware
12:57AM 10.0040 -76.5290 138° Southeast 488 562 35,000  Level FlightAware
12:57AM 9.9440 -76.4730 137° Southeast 488 562 35,000  Level FlightAware
12:58AM 9.8780 -76.4120 138° Southeast 488 562 35,000  Level FlightAware
12:59AM 9.8040 -76.3430 137° Southeast 488 562 35,000  Level FlightAware
12:59AM 9.7360 -76.2810 138° Southeast 487 560 35,000  Level FlightAware
01:00AM 9.6830 -76.2320 138° Southeast 487 560 35,000  Level FlightAware
01:00AM 9.6250 -76.1790 138° Southeast 486 559 35,000  Level FlightAware
01:01AM 9.5650 -76.1230 137° Southeast 486 559 35,000  Level FlightAware
01:02AM 9.4900 -76.0540 138° Southeast 487 560 35,000  Level FlightAware
01:02AM 9.4360 -76.0040 138° Southeast 487 560 35,000  Level FlightAware
01:03AM 9.3800 -75.9530 138° Southeast 486 559 35,000  Level FlightAware
01:03AM 9.3190 -75.8960 137° Southeast 487 560 35,000  Level FlightAware
01:04AM 9.2630 -75.8440 137° Southeast 488 562 35,000  Level FlightAware
01:05AM 9.1810 -75.7690 138° Southeast 488 562 35,000  Level FlightAware
01:05AM 9.1120 -75.7060 138° Southeast 488 562 35,000  Level FlightAware
01:06AM 9.0470 -75.6460 138° Southeast 489 563 35,000  Level FlightAware
01:07AM 8.9780 -75.5830 138° Southeast 489 563 35,000  Level FlightAware
01:07AM 8.9100 -75.5200 138° Southeast 489 563 35,000  Level FlightAware
01:08AM 8.8250 -75.4420 138° Southeast 489 563 35,000  Level FlightAware
01:09AM 8.7690 -75.3910 138° Southeast 491 565 35,000  Level FlightAware
01:10AM 8.6820 -75.3120 138° Southeast 491 565 35,000  Level FlightAware
01:10AM 8.6160 -75.2510 138° Southeast 493 567 35,000  Level FlightAware
01:11AM 8.5480 -75.1890 138° Southeast 492 566 35,000  Level FlightAware
01:12AM 8.4910 -75.1360 137° Southeast 492 566 35,000  Level FlightAware
01:12AM 8.4220 -75.0740 138° Southeast 491 565 35,000  Level FlightAware
01:13AM 8.3620 -75.0190 138° Southeast 489 563 35,000  Level FlightAware
01:13AM 8.3030 -74.9640 137° Southeast 487 560 35,000  Level FlightAware
01:14AM 8.2490 -74.9150 138° Southeast 486 559 35,000  Level FlightAware
01:15AM 8.1860 -74.8570 138° Southeast 486 559 35,000  Level FlightAware
01:15AM 8.1290 -74.8050 138° Southeast 486 559 35,000  Level FlightAware
01:16AM 8.0820 -74.7630 138° Southeast 486 559 35,000  Level FlightAware
01:16AM 8.0010 -74.6890 138° Southeast 486 559 35,000  Level FlightAware
01:17AM 7.9440 -74.6370 138° Southeast 486 559 35,000  Level FlightAware
01:18AM 7.8790 -74.5780 138° Southeast 486 559 35,000  Level FlightAware
01:18AM 7.8210 -74.5250 138° Southeast 487 560 35,000  Level FlightAware
01:19AM 7.7680 -74.4760 138° Southeast 488 562 35,000  Level FlightAware
01:19AM 7.7090 -74.4230 138° Southeast 486 559 35,000  Level FlightAware
01:20AM 7.6470 -74.3670 138° Southeast 486 559 35,000  Level FlightAware
01:21AM 7.5830 -74.3090 138° Southeast 486 559 35,000  Level FlightAware
01:21AM 7.5330 -74.2630 138° Southeast 486 559 35,000  Level FlightAware
01:22AM 7.4670 -74.2030 138° Southeast 485 558 35,000  Level FlightAware
01:22AM 7.4090 -74.1510 138° Southeast 484 557 35,000  Level FlightAware
01:23AM 7.3590 -74.1050 138° Southeast 484 557 35,000  Level FlightAware
01:23AM 7.3110 -74.0620 138° Southeast 484 557 35,000  Level FlightAware
01:24AM 7.2290 -73.9880 138° Southeast 484 557 35,000  Level FlightAware
01:25AM 7.1670 -73.9310 138° Southeast 486 559 35,000  Level FlightAware
01:25AM 7.1090 -73.8790 138° Southeast 486 559 35,000  Level FlightAware
01:26AM 7.0550 -73.8300 138° Southeast 486 559 35,000  Level FlightAware
01:26AM 6.9930 -73.7870 145° Southeast 482 555 35,000  Level FlightAware
01:27AM 6.9300 -73.7520 151° Southeast 482 555 35,000  Level FlightAware
01:28AM 6.8540 -73.7110 152° Southeast 484 557 35,000  Level FlightAware
01:28AM 6.7910 -73.6770 152° Southeast 482 555 35,000  Level FlightAware
01:29AM 6.7230 -73.6400 152° Southeast 483 556 35,000  Level FlightAware
01:29AM 6.6480 -73.6000 152° Southeast 482 555 35,000  Level FlightAware
01:30AM 6.5780 -73.5620 152° Southeast 481 554 35,000  Level FlightAware
01:30AM 6.5150 -73.5280 152° Southeast 481 554 35,000  Level FlightAware
01:31AM 6.4450 -73.4900 152° Southeast 478 550 35,000  Level FlightAware
01:32AM 6.3740 -73.4510 151° Southeast 480 552 35,000  Level FlightAware
01:32AM 6.3030 -73.4130 152° Southeast 480 552 35,000  Level FlightAware
01:33AM 6.2410 -73.3790 151° Southeast 481 554 35,000  Level FlightAware
01:33AM 6.1700 -73.3410 152° Southeast 480 552 35,000  Level FlightAware
01:34AM 6.0930 -73.2990 152° Southeast 479 551 35,000  Level FlightAware
01:35AM 6.0320 -73.2650 151° Southeast 479 551 35,000  Level FlightAware
01:35AM 5.9720 -73.2320 151° Southeast 479 551 35,000  Level FlightAware
01:36AM 5.9130 -73.1990 151° Southeast 479 551 35,000  Level FlightAware
01:37AM 5.8540 -73.1660 151° Southeast 479 551 35,000  Level FlightAware
01:37AM 5.7950 -73.1330 151° Southeast 479 551 35,000  Level FlightAware
01:38AM 5.7290 -73.0960 151° Southeast 479 551 35,000  Level FlightAware
01:38AM 5.5750 -73.0200 154° Southeast 482 555 35,000  Level FlightAware
01:39AM 5.5030 -72.9820 152° Southeast 483 556 35,000  Level FlightAware
01:40AM 5.4400 -72.9480 152° Southeast 484 557 35,000  Level FlightAware
01:40AM 5.3690 -72.9100 152° Southeast 485 558 35,000  Level FlightAware
01:41AM 5.3010 -72.8730 152° Southeast 485 558 35,000  Level FlightAware
01:41AM 5.2310 -72.8360 152° Southeast 484 557 35,000  Level FlightAware
01:42AM 5.1550 -72.7950 152° Southeast 483 556 35,000  Level FlightAware
01:43AM 5.0650 -72.7460 152° Southeast 484 557 35,000  Level FlightAware
01:43AM 5.0050 -72.7120 151° Southeast 484 557 35,000  Level FlightAware
01:44AM 4.9460 -72.6790 151° Southeast 484 557 35,000  Level FlightAware
01:45AM 4.8860 -72.6460 151° Southeast 484 557 35,000  Level FlightAware
01:45AM 4.8260 -72.6120 151° Southeast 484 557 35,000  Level FlightAware
01:46AM 4.7660 -72.5790 151° Southeast 484 557 35,000  Level FlightAware
01:46AM 4.7060 -72.5460 151° Southeast 484 557 35,000  Level FlightAware
01:47AM 4.6460 -72.5120 151° Southeast 484 557 35,000  Level FlightAware
01:48AM 4.5860 -72.4790 151° Southeast 484 557 35,000  Level FlightAware
01:48AM 4.5260 -72.4460 151° Southeast 484 557 35,000  Level FlightAware
01:49AM 4.4660 -72.4120 151° Southeast 484 557 35,000  Level FlightAware
01:49AM 4.4060 -72.3790 151° Southeast 484 557 35,000  Level FlightAware
01:50AM 4.3460 -72.3460 151° Southeast 484 557 35,000  Level FlightAware
01:51AM 4.2860 -72.3120 151° Southeast 484 557 35,000  Level FlightAware
01:51AM 4.2260 -72.2790 151° Southeast 484 557 35,000  Level FlightAware
01:52AM 4.1660 -72.2460 151° Southeast 484 557 35,000  Level FlightAware
01:54AM 3.9653 -72.1488 154° Southeast  Level FlightAware Approximate
01:55AM 3.8555 -72.0785 145° Southeast  Level FlightAware Approximate
01:56AM 3.7485 -72.0030 145° Southeast  Level FlightAware Approximate
01:57AM 3.6414 -71.9276 145° Southeast  Level FlightAware Approximate
01:58AM 3.5343 -71.8522 145° Southeast  Level FlightAware Approximate
01:59AM 3.4272 -71.7768 145° Southeast  Level FlightAware Approximate
02:00AM 3.3201 -71.7014 145° Southeast  Level FlightAware Approximate
02:01AM 3.2130 -71.6261 145° Southeast  Level FlightAware Approximate
02:02AM 3.1059 -71.5507 145° Southeast  Level FlightAware Approximate
02:03AM 2.9988 -71.4754 145° Southeast  Level FlightAware Approximate
02:04AM 2.8917 -71.4001 145° Southeast  Level FlightAware Approximate
02:05AM 2.7846 -71.3248 145° Southeast  Level FlightAware Approximate
02:06AM 2.6775 -71.2495 145° Southeast  Level FlightAware Approximate
02:07AM 2.5704 -71.1742 145° Southeast  Level FlightAware Approximate
02:08AM 2.4634 -71.0988 145° Southeast  Level FlightAware Approximate
02:09AM 2.3563 -71.0234 145° Southeast  Level FlightAware Approximate
02:10AM 2.2493 -70.9481 145° Southeast  Level FlightAware Approximate
02:11AM 2.1422 -70.8727 145° Southeast  Level FlightAware Approximate
02:12AM 2.0352 -70.7974 145° Southeast  Level FlightAware Approximate
02:13AM 1.9281 -70.7220 145° Southeast  Level FlightAware Approximate
02:14AM 1.8211 -70.6467 145° Southeast  Level FlightAware Approximate
02:15AM 1.7140 -70.5714 145° Southeast  Level FlightAware Approximate
02:16AM 1.6069 -70.4961 145° Southeast  Level FlightAware Approximate
02:17AM 1.4999 -70.4208 145° Southeast  Level FlightAware Approximate
02:18AM 1.3928 -70.3455 145° Southeast  Level FlightAware Approximate
02:19AM 1.2857 -70.2702 145° Southeast  Level FlightAware Approximate
02:20AM 1.1834 -70.1889 138° Southeast  Level FlightAware Approximate
02:21AM 1.0856 -70.1019 138° Southeast  Level FlightAware Approximate
02:22AM 0.9879 -70.0148 138° Southeast  Level FlightAware Approximate
02:23AM 0.8901 -69.9278 138° Southeast  Level FlightAware Approximate
02:24AM 0.7923 -69.8408 138° Southeast  Level FlightAware Approximate
02:25AM 0.6945 -69.7538 138° Southeast  Level FlightAware Approximate
02:26AM 0.5968 -69.6668 138° Southeast  Level FlightAware Approximate
02:27AM 0.4990 -69.5798 138° Southeast  Level FlightAware Approximate
02:28AM 0.4012 -69.4928 138° Southeast  Level FlightAware Approximate
02:29AM 0.3034 -69.4058 138° Southeast  Level FlightAware Approximate
02:30AM 0.2056 -69.3188 138° Southeast  Level FlightAware Approximate
02:31AM 0.1079 -69.2318 138° Southeast  Level FlightAware Approximate
02:32AM 0.0101 -69.1448 138° Southeast  Level FlightAware Approximate
02:33AM -0.0877 -69.0578 138° Southeast  Level FlightAware Approximate
02:34AM -0.1855 -68.9708 138° Southeast  Level FlightAware Approximate
02:35AM -0.2833 -68.8839 138° Southeast  Level FlightAware Approximate
02:36AM -0.3810 -68.7969 138° Southeast  Level FlightAware Approximate
02:37AM -0.4788 -68.7099 138° Southeast  Level FlightAware Approximate
02:38AM -0.5766 -68.6229 138° Southeast  Level FlightAware Approximate
02:39AM -0.6744 -68.5359 138° Southeast  Level FlightAware Approximate
02:40AM -0.7722 -68.4489 138° Southeast  Level FlightAware Approximate
02:41AM -0.8699 -68.3618 138° Southeast  Level FlightAware Approximate
02:42AM -0.9677 -68.2748 138° Southeast  Level FlightAware Approximate
02:43AM -1.0655 -68.1878 138° Southeast  Level FlightAware Approximate
02:44AM -1.1632 -68.1008 138° Southeast  Level FlightAware Approximate
02:45AM -1.2610 -68.0137 138° Southeast  Level FlightAware Approximate
02:46AM -1.3588 -67.9267 138° Southeast  Level FlightAware Approximate
02:47AM -1.4565 -67.8397 138° Southeast  Level FlightAware Approximate
02:48AM -1.5543 -67.7526 138° Southeast  Level FlightAware Approximate
02:49AM -1.6521 -67.6655 138° Southeast  Level FlightAware Approximate
02:50AM -1.7498 -67.5785 138° Southeast  Level FlightAware Approximate
02:51AM -1.8476 -67.4914 138° Southeast  Level FlightAware Approximate
02:52AM -1.9453 -67.4043 138° Southeast  Level FlightAware Approximate
02:53AM -2.0430 -67.3172 138° Southeast  Level FlightAware Approximate
02:54AM -2.1408 -67.2301 138° Southeast  Level FlightAware Approximate
02:55AM -2.2385 -67.1430 138° Southeast  Level FlightAware Approximate
02:56AM -2.3362 -67.0558 138° Southeast  Level FlightAware Approximate
02:57AM -2.4339 -66.9687 138° Southeast  Level FlightAware Approximate
02:58AM -2.5316 -66.8815 138° Southeast  Level FlightAware Approximate
02:59AM -2.6293 -66.7944 138° Southeast  Level FlightAware Approximate
03:00AM -2.7271 -66.7072 138° Southeast  Level FlightAware Approximate
03:01AM -2.8247 -66.6200 138° Southeast  Level FlightAware Approximate
03:02AM -2.9224 -66.5328 138° Southeast  Level FlightAware Approximate
03:03AM -3.0201 -66.4455 138° Southeast  Level FlightAware Approximate
03:04AM -3.1178 -66.3583 138° Southeast  Level FlightAware Approximate
03:05AM -3.2155 -66.2710 138° Southeast  Level FlightAware Approximate
03:06AM -3.3131 -66.1838 138° Southeast  Level FlightAware Approximate
03:07AM -3.4108 -66.0965 138° Southeast  Level FlightAware Approximate
03:08AM -3.5084 -66.0092 138° Southeast  Level FlightAware Approximate
03:09AM -3.6060 -65.9218 138° Southeast  Level FlightAware Approximate
03:10AM -3.7037 -65.8345 138° Southeast  Level FlightAware Approximate
03:11AM -3.8013 -65.7471 138° Southeast  Level FlightAware Approximate
03:12AM -3.8989 -65.6597 138° Southeast  Level FlightAware Approximate
03:13AM -3.9965 -65.5723 138° Southeast  Level FlightAware Approximate
03:14AM -4.0941 -65.4849 138° Southeast  Level FlightAware Approximate
03:15AM -4.1917 -65.3974 138° Southeast  Level FlightAware Approximate
03:16AM -4.2892 -65.3100 138° Southeast  Level FlightAware Approximate
03:17AM -4.3868 -65.2225 138° Southeast  Level FlightAware Approximate
03:18AM -4.4844 -65.1350 138° Southeast  Level FlightAware Approximate
03:19AM -4.5819 -65.0474 138° Southeast  Level FlightAware Approximate
03:20AM -4.6794 -64.9599 138° Southeast  Level FlightAware Approximate
03:21AM -4.7769 -64.8723 138° Southeast  Level FlightAware Approximate
03:22AM -4.8745 -64.7847 138° Southeast  Level FlightAware Approximate
03:23AM -4.9720 -64.6970 138° Southeast  Level FlightAware Approximate
03:24AM -5.0694 -64.6094 138° Southeast  Level FlightAware Approximate
03:25AM -5.1669 -64.5217 138° Southeast  Level FlightAware Approximate
03:26AM -5.2644 -64.4340 138° Southeast  Level FlightAware Approximate
03:27AM -5.3618 -64.3462 138° Southeast  Level FlightAware Approximate
03:28AM -5.4593 -64.2584 138° Southeast  Level FlightAware Approximate
03:29AM -5.5567 -64.1706 138° Southeast  Level FlightAware Approximate
03:30AM -5.6541 -64.0828 138° Southeast  Level FlightAware Approximate
03:31AM -5.7515 -63.9949 138° Southeast  Level FlightAware Approximate
03:32AM -5.8489 -63.9071 138° Southeast  Level FlightAware Approximate
03:33AM -5.9462 -63.8191 138° Southeast  Level FlightAware Approximate
03:34AM -6.0436 -63.7312 138° Southeast  Level FlightAware Approximate
03:35AM -6.1409 -63.6432 138° Southeast  Level FlightAware Approximate
03:36AM -6.2383 -63.5552 138° Southeast  Level FlightAware Approximate
03:37AM -6.3356 -63.4671 138° Southeast  Level FlightAware Approximate
03:38AM -6.4329 -63.3791 138° Southeast  Level FlightAware Approximate
03:39AM -6.5302 -63.2909 138° Southeast  Level FlightAware Approximate
03:40AM -6.6274 -63.2028 138° Southeast  Level FlightAware Approximate
03:41AM -6.7247 -63.1146 138° Southeast  Level FlightAware Approximate
03:42AM -6.8219 -63.0264 138° Southeast  Level FlightAware Approximate
03:43AM -6.9191 -62.9381 138° Southeast  Level FlightAware Approximate
03:44AM -7.0163 -62.8498 138° Southeast  Level FlightAware Approximate
03:45AM -7.1135 -62.7615 138° Southeast  Level FlightAware Approximate
03:46AM -7.2107 -62.6731 138° Southeast  Level FlightAware Approximate
03:47AM -7.3079 -62.5847 138° Southeast  Level FlightAware Approximate
03:48AM -7.4050 -62.4963 138° Southeast  Level FlightAware Approximate
03:49AM -7.5021 -62.4078 138° Southeast  Level FlightAware Approximate
03:50AM -7.5992 -62.3193 138° Southeast  Level FlightAware Approximate
03:51AM -7.6963 -62.2307 138° Southeast  Level FlightAware Approximate
03:52AM -7.7934 -62.1421 138° Southeast  Level FlightAware Approximate
03:53AM -7.8904 -62.0535 138° Southeast  Level FlightAware Approximate
03:54AM -7.9875 -61.9648 138° Southeast  Level FlightAware Approximate
03:55AM -8.0845 -61.8761 138° Southeast  Level FlightAware Approximate
03:56AM -8.1814 -61.7873 138° Southeast  Level FlightAware Approximate
03:57AM -8.2784 -61.6985 138° Southeast  Level FlightAware Approximate
03:58AM -8.3754 -61.6096 138° Southeast  Level FlightAware Approximate
03:59AM -8.4723 -61.5207 138° Southeast  Level FlightAware Approximate
04:00AM -8.5692 -61.4318 138° Southeast  Level FlightAware Approximate
04:01AM -8.6661 -61.3428 138° Southeast  Level FlightAware Approximate
04:02AM -8.7630 -61.2538 138° Southeast  Level FlightAware Approximate
04:03AM -8.8598 -61.1647 138° Southeast  Level FlightAware Approximate
04:04AM -8.9566 -61.0756 138° Southeast  Level FlightAware Approximate
04:05AM -9.0535 -60.9864 138° Southeast  Level FlightAware Approximate
04:06AM -9.1503 -60.8971 138° Southeast  Level FlightAware Approximate
04:07AM -9.2470 -60.8079 138° Southeast  Level FlightAware Approximate
04:08AM -9.3438 -60.7186 138° Southeast  Level FlightAware Approximate
04:09AM -9.4405 -60.6292 138° Southeast  Level FlightAware Approximate
04:10AM -9.5372 -60.5398 138° Southeast  Level FlightAware Approximate
04:11AM -9.6338 -60.4503 138° Southeast  Level FlightAware Approximate
04:12AM -9.7305 -60.3608 138° Southeast  Level FlightAware Approximate
04:13AM -9.8271 -60.2712 138° Southeast  Level FlightAware Approximate
04:14AM -9.9237 -60.1816 138° Southeast  Level FlightAware Approximate
04:15AM -10.0203 -60.0919 138° Southeast  Level FlightAware Approximate
04:16AM -10.1169 -60.0022 138° Southeast  Level FlightAware Approximate
04:17AM -10.2134 -59.9124 138° Southeast  Level FlightAware Approximate
04:18AM -10.3099 -59.8225 138° Southeast  Level FlightAware Approximate
04:19AM -10.4064 -59.7326 138° Southeast  Level FlightAware Approximate
04:20AM -10.5028 -59.6427 137° Southeast  Level FlightAware Approximate
04:21AM -10.5993 -59.5527 137° Southeast  Level FlightAware Approximate
04:22AM -10.6957 -59.4626 137° Southeast  Level FlightAware Approximate
04:23AM -10.7921 -59.3725 137° Southeast  Level FlightAware Approximate
04:24AM -10.8884 -59.2823 137° Southeast  Level FlightAware Approximate
04:25AM -10.9848 -59.1921 137° Southeast  Level FlightAware Approximate
04:26AM -11.0811 -59.1017 137° Southeast  Level FlightAware Approximate
04:27AM -11.1773 -59.0114 137° Southeast  Level FlightAware Approximate
04:28AM -11.2736 -58.9210 137° Southeast  Level FlightAware Approximate
04:29AM -11.3698 -58.8305 137° Southeast  Level FlightAware Approximate
04:30AM -11.4660 -58.7399 137° Southeast  Level FlightAware Approximate
04:31AM -11.5622 -58.6493 137° Southeast  Level FlightAware Approximate
04:32AM -11.6583 -58.5587 137° Southeast  Level FlightAware Approximate
04:33AM -11.7544 -58.4680 137° Southeast  Level FlightAware Approximate
04:34AM -11.8505 -58.3772 137° Southeast  Level FlightAware Approximate
04:35AM -11.9466 -58.2863 137° Southeast  Level FlightAware Approximate
04:36AM -12.0426 -58.1954 137° Southeast  Level FlightAware Approximate
04:37AM -12.1386 -58.1044 137° Southeast  Level FlightAware Approximate
04:38AM -12.2345 -58.0134 137° Southeast  Level FlightAware Approximate
04:39AM -12.3305 -57.9222 137° Southeast  Level FlightAware Approximate
04:40AM -12.4263 -57.8311 137° Southeast  Level FlightAware Approximate
04:41AM -12.5222 -57.7398 137° Southeast  Level FlightAware Approximate
04:42AM -12.6181 -57.6485 137° Southeast  Level FlightAware Approximate
04:43AM -12.7139 -57.5571 137° Southeast  Level FlightAware Approximate
04:44AM -12.8097 -57.4656 137° Southeast  Level FlightAware Approximate
04:45AM -12.9054 -57.3741 137° Southeast  Level FlightAware Approximate
04:46AM -13.0011 -57.2825 137° Southeast  Level FlightAware Approximate
04:47AM -13.0968 -57.1909 137° Southeast  Level FlightAware Approximate
04:48AM -13.1924 -57.0991 137° Southeast  Level FlightAware Approximate
04:49AM -13.2881 -57.0073 137° Southeast  Level FlightAware Approximate
04:50AM -13.3837 -56.9154 137° Southeast  Level FlightAware Approximate
04:51AM -13.4792 -56.8235 137° Southeast  Level FlightAware Approximate
04:52AM -13.5747 -56.7315 137° Southeast  Level FlightAware Approximate
04:53AM -13.6702 -56.6394 137° Southeast  Level FlightAware Approximate
04:54AM -13.7657 -56.5472 137° Southeast  Level FlightAware Approximate
04:55AM -13.8611 -56.4549 137° Southeast  Level FlightAware Approximate
04:56AM -13.9565 -56.3626 137° Southeast  Level FlightAware Approximate
04:57AM -14.0518 -56.2702 137° Southeast  Level FlightAware Approximate
04:58AM -14.1471 -56.1777 137° Southeast  Level FlightAware Approximate
04:59AM -14.2424 -56.0852 137° Southeast  Level FlightAware Approximate
05:00AM -14.3377 -55.9925 137° Southeast  Level FlightAware Approximate
05:01AM -14.4329 -55.8998 137° Southeast  Level FlightAware Approximate
05:02AM -14.5280 -55.8070 137° Southeast  Level FlightAware Approximate
05:03AM -14.6232 -55.7141 137° Southeast  Level FlightAware Approximate
05:04AM -14.7183 -55.6212 137° Southeast  Level FlightAware Approximate
05:05AM -14.8133 -55.5281 137° Southeast  Level FlightAware Approximate
05:06AM -14.9083 -55.4350 137° Southeast  Level FlightAware Approximate
05:07AM -15.0033 -55.3418 137° Southeast  Level FlightAware Approximate
05:08AM -15.0983 -55.2485 137° Southeast  Level FlightAware Approximate
05:09AM -15.1932 -55.1552 136° Southeast  Level FlightAware Approximate
05:10AM -15.2880 -55.0617 136° Southeast  Level FlightAware Approximate
05:11AM -15.3829 -54.9682 136° Southeast  Level FlightAware Approximate
05:12AM -15.4777 -54.8746 136° Southeast  Level FlightAware Approximate
05:13AM -15.5724 -54.7809 136° Southeast  Level FlightAware Approximate
05:14AM -15.6671 -54.6871 136° Southeast  Level FlightAware Approximate
05:15AM -15.7618 -54.5932 136° Southeast  Level FlightAware Approximate
05:16AM -15.8564 -54.4992 136° Southeast  Level FlightAware Approximate
05:17AM -15.9510 -54.4052 136° Southeast  Level FlightAware Approximate
05:18AM -16.0456 -54.3110 136° Southeast  Level FlightAware Approximate
05:19AM -16.1401 -54.2168 136° Southeast  Level FlightAware Approximate
05:20AM -16.2346 -54.1225 136° Southeast  Level FlightAware Approximate
05:21AM -16.3290 -54.0281 136° Southeast  Level FlightAware Approximate
05:22AM -16.4234 -53.9336 136° Southeast  Level FlightAware Approximate
05:23AM -16.5177 -53.8390 136° Southeast  Level FlightAware Approximate
05:24AM -16.6120 -53.7443 136° Southeast  Level FlightAware Approximate
05:25AM -16.7063 -53.6495 136° Southeast  Level FlightAware Approximate
05:26AM -16.8005 -53.5546 136° Southeast  Level FlightAware Approximate
05:27AM -16.8946 -53.4596 136° Southeast  Level FlightAware Approximate
05:28AM -16.9888 -53.3646 136° Southeast  Level FlightAware Approximate
05:29AM -17.0828 -53.2694 136° Southeast  Level FlightAware Approximate
05:30AM -17.1769 -53.1741 136° Southeast  Level FlightAware Approximate
05:31AM -17.2709 -53.0788 136° Southeast  Level FlightAware Approximate
05:32AM -17.3648 -52.9833 136° Southeast  Level FlightAware Approximate
05:33AM -17.4587 -52.8878 136° Southeast  Level FlightAware Approximate
05:34AM -17.5526 -52.7921 136° Southeast  Level FlightAware Approximate
05:35AM -17.6464 -52.6964 136° Southeast  Level FlightAware Approximate
05:36AM -17.7402 -52.6006 136° Southeast  Level FlightAware Approximate
05:37AM -17.8339 -52.5046 136° Southeast  Level FlightAware Approximate
05:38AM -17.9275 -52.4086 136° Southeast  Level FlightAware Approximate
05:39AM -18.0212 -52.3124 136° Southeast  Level FlightAware Approximate
05:40AM -18.1147 -52.2161 136° Southeast  Level FlightAware Approximate
05:41AM -18.2083 -52.1198 136° Southeast  Level FlightAware Approximate
05:42AM -18.3018 -52.0233 136° Southeast  Level FlightAware Approximate
05:43AM -18.3952 -51.9268 136° Southeast  Level FlightAware Approximate
05:44AM -18.4886 -51.8301 136° Southeast  Level FlightAware Approximate
05:44AM -18.8450 -50.8390 136° Southeast 498 573 37,000  Level FlightAware
05:44AM -18.9210 -50.7550 134° Southeast 498 573 37,000  Level FlightAware
05:45AM -18.5819 -51.7333 136° Southeast  Level FlightAware Approximate
05:45AM -18.9700 -50.7000 133° Southeast 498 573 37,000  Level FlightAware
05:46AM -19.0580 -50.6080 135° Southeast 505 581 37,000  Level FlightAware
05:46AM -19.1180 -50.5420 134° Southeast 506 582 37,000  Level FlightAware
05:47AM -19.1780 -50.4760 134° Southeast 504 580 37,000  Level FlightAware
05:47AM -19.2290 -50.4200 134° Southeast 503 579 37,000  Level FlightAware
05:48AM -19.2840 -50.3600 134° Southeast 502 578 37,000  Level FlightAware
05:49AM -19.3460 -50.2920 134° Southeast 500 575 37,000  Level FlightAware
05:49AM -19.3970 -50.2360 134° Southeast 501 577 37,000  Level FlightAware
05:50AM -19.4550 -50.1720 134° Southeast 501 577 37,000  Level FlightAware
05:50AM -19.5140 -50.1080 134° Southeast 501 577 37,000  Level FlightAware
05:51AM -19.5710 -50.0450 134° Southeast 502 578 37,000  Level FlightAware
05:52AM -19.6220 -49.9880 134° Southeast 503 579 37,000  Level FlightAware
05:52AM -19.6820 -49.9220 134° Southeast 502 578 37,000  Level FlightAware
05:53AM -19.7380 -49.8620 135° Southeast 499 574 37,000  Level FlightAware
05:53AM -19.7940 -49.8000 134° Southeast 500 575 37,000  Level FlightAware
05:54AM -19.8550 -49.7340 135° Southeast 501 577 37,000  Level FlightAware
05:54AM -19.9060 -49.6780 134° Southeast 501 577 37,000  Level FlightAware
05:55AM -19.9650 -49.6130 134° Southeast 501 577 37,000  Level FlightAware
05:56AM -20.0240 -49.5490 134° Southeast 501 577 37,000  Level FlightAware
05:56AM -20.0760 -49.4910 134° Southeast 502 578 37,000  Level FlightAware
05:57AM -20.1330 -49.4290 134° Southeast 503 579 37,000  Level FlightAware
05:57AM -20.1950 -49.3600 134° Southeast 503 579 37,000  Level FlightAware
05:58AM -20.2460 -49.3040 134° Southeast 504 580 37,000  Level FlightAware
05:59AM -20.3030 -49.2410 134° Southeast 505 581 37,000  Level FlightAware
05:59AM -20.3610 -49.1780 134° Southeast 505 581 37,000  Level FlightAware
06:00AM -20.4220 -49.1100 134° Southeast 507 583 37,000  Level FlightAware
06:00AM -20.4740 -49.0510 133° Southeast 507 583 37,000  Level FlightAware
06:01AM -20.5360 -48.9830 134° Southeast 507 583 37,000  Level FlightAware
06:01AM -20.5840 -48.9300 134° Southeast 507 583 37,000  Level FlightAware
06:02AM -20.6470 -48.8600 134° Southeast 509 586 37,000  Level FlightAware
06:03AM -20.7030 -48.7970 134° Southeast 510 587 37,000  Level FlightAware
06:03AM -20.7580 -48.7360 134° Southeast 511 588 37,000  Level FlightAware
06:04AM -20.8200 -48.6660 133° Southeast 512 589 37,000  Level FlightAware
06:04AM -20.8790 -48.6000 134° Southeast 513 590 37,000  Level FlightAware
06:05AM -20.9320 -48.5410 134° Southeast 515 593 37,000  Level FlightAware
06:06AM -20.9910 -48.4750 134° Southeast 514 592 37,000  Level FlightAware
06:06AM -21.0460 -48.4120 133° Southeast 513 590 37,000  Level FlightAware
06:07AM -21.1080 -48.3430 134° Southeast 513 590 37,000  Level FlightAware
06:07AM -21.1610 -48.2830 133° Southeast 514 592 37,000  Level FlightAware
06:08AM -21.2190 -48.2170 133° Southeast 515 593 37,000  Level FlightAware
06:09AM -21.2780 -48.1500 133° Southeast 516 594 37,000  Level FlightAware
06:09AM -21.3310 -48.0900 133° Southeast 517 595 37,000  Level FlightAware
06:10AM -21.3930 -48.0200 134° Southeast 515 593 37,000  Level FlightAware
06:10AM -21.4590 -47.9600 140° Southeast 508 585 37,000  Level FlightAware
06:11AM -21.4880 -47.9360 142° Southeast 508 585 37,000  Level FlightAware
06:11AM -21.5940 -47.8470 142° Southeast 512 589 37,000  Level FlightAware
06:12AM -21.6530 -47.7970 142° Southeast 514 592 37,000 -120 Level FlightAware
06:13AM -21.7220 -47.7390 142° Southeast 516 594 36,900 -780 Descending FlightAware
06:13AM -21.7840 -47.6860 142° Southeast 508 585 36,100 -2,220 Descending FlightAware
06:14AM -21.8530 -47.6270 142° Southeast 513 590 34,300 -2,940 Descending FlightAware
06:14AM -21.9210 -47.5690 142° Southeast 514 592 32,500 -2,700 Descending FlightAware
06:15AM -21.9780 -47.5210 142° Southeast 508 585 31,300 -2,160 Descending FlightAware
06:16AM -22.0430 -47.4650 141° Southeast 498 573 30,100 -2,040 Descending FlightAware
06:16AM -22.1030 -47.4140 142° Southeast 489 563 29,000 -2,160 Descending FlightAware
06:17AM -22.1710 -47.3560 142° Southeast 481 554 27,600 -1,980 Descending FlightAware
06:17AM -22.2260 -47.3090 142° Southeast 476 548 26,600 -1,980 Descending FlightAware
06:18AM -22.2920 -47.2530 142° Southeast 468 539 25,300 -2,100 Descending FlightAware
06:18AM -22.3540 -47.2000 142° Southeast 462 532 24,100 -1,980 Descending FlightAware
06:19AM -22.4080 -47.1540 142° Southeast 456 525 23,100 -1,980 Descending FlightAware
06:20AM -22.4650 -47.1050 142° Southeast 448 516 21,900 -1,920 Descending FlightAware
06:20AM -22.5180 -47.0590 141° Southeast 441 507 20,900 -1,980 Descending FlightAware
06:21AM -22.5750 -47.0150 145° Southeast 426 490 19,700 -2,220 Descending FlightAware
06:21AM -22.6370 -46.9780 151° Southeast 423 487 18,300 -2,340 Descending FlightAware
06:22AM -22.6990 -46.9430 152° Southeast 417 480 16,900 -1,920 Descending FlightAware
06:23AM -22.7580 -46.9090 152° Southeast 391 450 16,100 -1,800 Descending FlightAware
06:23AM -22.8110 -46.8790 152° Southeast 372 428 14,800 -2,160 Descending FlightAware
06:24AM -22.8640 -46.8490 152° Southeast 371 427 13,600 -1,800 Descending FlightAware
06:24AM -22.9260 -46.8150 153° Southeast 366 421 12,600 -1,560 Descending FlightAware
06:25AM -22.9770 -46.7860 152° Southeast 362 417 11,700 -1,500 Descending FlightAware
06:26AM -23.0300 -46.7570 153° Southeast 355 409 10,900 -1,080 Descending FlightAware
06:26AM -23.0790 -46.7290 152° Southeast 337 388 10,500 -720 Descending FlightAware
06:27AM -23.1270 -46.7020 153° Southeast 315 362 10,100 -720 Descending FlightAware
06:27AM -23.1450 -46.6920 153° Southeast 312 359 9,900 -1,020 Descending FlightAware
06:27AM -23.1620 -46.6760 139° Southeast 321 369 9,600 -1,200 Descending FlightAware
06:27AM -23.1700 -46.6620 122° Southeast 325 374 9,400 -1,020 Descending FlightAware
06:28AM -23.1810 -46.6330 112° Southeast 323 372 9,100 -1,080 Descending FlightAware
06:28AM -23.1920 -46.6030 112° Southeast 318 366 8,700 -900 Descending FlightAware
06:28AM -23.2010 -46.5750 109° East 314 361 8,500 -720 Descending FlightAware
06:29AM -23.2140 -46.5370 110° East 299 344 8,200 -960 Descending FlightAware
06:29AM -23.2230 -46.5100 110° East 292 336 7,800 -1,020 Descending FlightAware
06:29AM -23.2270 -46.4970 109° East 289 333 7,700 -420 Descending FlightAware
06:30AM -23.2360 -46.4710 111° Southeast 265 305 7,600 -420 Descending FlightAware
06:30AM -23.2470 -46.4400 111° Southeast 257 296 7,400 -420 Descending FlightAware
06:30AM -23.2550 -46.4180 112° Southeast 239 275 7,300 -480 Descending FlightAware
06:31AM -23.2620 -46.3960 109° East 234 269 7,100 -480 Descending FlightAware
06:31AM -23.2700 -46.3740 112° Southeast 229 264 7,000 -420 Descending FlightAware
06:31AM -23.2790 -46.3460 109° East 226 260 6,800 -480 Descending FlightAware
06:32AM -23.2850 -46.3300 112° Southeast 217 250 6,700 -480 Descending FlightAware
06:32AM -23.2930 -46.3060 110° East 202 232 6,500 -540 Descending FlightAware
06:32AM -23.3000 -46.2860 111° Southeast 199 229 6,300 -480 Descending FlightAware
06:33AM -23.3060 -46.2670 109° East 200 230 6,200 -420 Descending FlightAware
06:33AM -23.3100 -46.2580 116° Southeast 199 229 6,100 -600 Descending FlightAware
06:33AM -23.3160 -46.2520 137° Southeast 196 226 6,000 -360 Descending FlightAware
06:33AM -23.3220 -46.2480 149° Southeast 192 221 6,000  Level FlightAware
06:33AM -23.3280 -46.2470 171° South 179 206 6,000  Level FlightAware
06:34AM -23.3440 -46.2520 196° South 176 203 6,000  Level FlightAware
06:34AM -23.3560 -46.2610 215° Southwest 168 193 6,000 -300 Level FlightAware
06:34AM -23.3700 -46.2740 220° Southwest 168 193 5,800 -780 Descending FlightAware
06:35AM -23.3810 -46.2850 223° Southwest 163 188 5,500 -900 Descending FlightAware
06:35AM -23.3840 -46.2890 231° Southwest 161 185 5,400 -900 Descending FlightAware
06:35AM -23.3880 -46.2990 246° West 160 184 5,200 -840 Descending FlightAware
06:35AM -23.3900 -46.3090 258° West 157 181 5,100 -720 Descending FlightAware
06:36AM -23.3950 -46.3260 252° West 147 169 4,800 -840 Descending FlightAware
06:36AM -23.3990 -46.3400 253° West 147 169 4,500 -900 Descending FlightAware
06:36AM -23.4020 -46.3500 252° West 146 168 4,300 -840 Descending FlightAware
06:37AM -23.4060 -46.3670 256° West 150 173 4,000 -840 Descending FlightAware
06:37AM -23.4110 -46.3840 252° West 151 174 3,700 -900 Descending FlightAware
06:37AM -23.4160 -46.4030 254° West 148 170 3,300 -960 Descending FlightAware
06:38AM -23.4200 -46.4180 254° West 148 170 3,000 -780 Descending FlightAware
06:38AM -23.4240 -46.4320 253° West 151 174 2,800 -780 Descending FlightAware
06:38AM -23.4280 -46.4470 254° West 149 171 2,500 -660 Descending FlightAware
06:39AM -23.4340 -46.4700 254° West 149 171 2,200 -540 Descending FlightAware